createdAt,value
2022-12-08T00:01:54.426Z,12.45
2022-12-08T00:07:17.149Z,11.55
2022-12-08T00:12:21.423Z,14.32
2022-12-08T00:17:25.404Z,10.75
2022-12-08T00:22:34.906Z,9.57
2022-12-08T00:27:39.035Z,6.45
2022-12-08T00:32:43.572Z,7.55
2022-12-08T00:37:49.205Z,7.85
2022-12-08T00:42:53.314Z,8.85
2022-12-08T00:47:57.597Z,9.00
2022-12-08T00:53:03.243Z,12.90
2022-12-08T00:58:07.518Z,13.63
2022-12-08T01:03:12.078Z,11.20
2022-12-08T01:08:17.609Z,7.80
2022-12-08T01:13:22.013Z,7.70
2022-12-08T01:18:26.459Z,6.63
2022-12-08T01:23:32.048Z,7.55
2022-12-08T01:28:36.283Z,8.32
2022-12-08T01:33:41.165Z,7.65
2022-12-08T01:38:47.807Z,7.88
2022-12-08T01:44:28.044Z,7.55
2022-12-08T01:49:37.150Z,7.65
2022-12-08T01:54:47.537Z,8.52
2022-12-08T01:59:57.397Z,8.80
2022-12-08T02:05:02.902Z,8.68
2022-12-08T02:10:10.273Z,9.75
2022-12-08T02:15:15.707Z,10.43
2022-12-08T02:20:39.303Z,10.27
2022-12-08T02:26:03.240Z,11.00
2022-12-08T02:31:22.382Z,10.50
2022-12-08T02:36:33.827Z,9.55
2022-12-08T02:41:43.569Z,10.00
2022-12-08T02:46:53.328Z,9.23
2022-12-08T02:52:08.702Z,10.20
2022-12-08T02:57:31.345Z,9.68
2022-12-08T03:02:47.015Z,11.20
2022-12-08T03:07:59.573Z,9.80
2022-12-08T03:13:09.438Z,8.70
2022-12-08T03:18:17.268Z,8.60
2022-12-08T03:23:25.468Z,8.30
2022-12-08T03:28:29.616Z,6.63
2022-12-08T03:33:37.679Z,6.80
2022-12-08T03:38:45.958Z,6.70
2022-12-08T03:43:52.018Z,6.53
2022-12-08T03:48:56.251Z,5.97
2022-12-08T03:54:01.894Z,6.85
2022-12-08T03:59:07.518Z,7.28
2022-12-08T04:04:12.493Z,7.43
2022-12-08T04:09:18.868Z,17.20
2022-12-08T04:14:24.167Z,18.13
2022-12-08T04:19:28.645Z,10.55
2022-12-08T04:24:34.386Z,10.40
2022-12-08T04:29:38.516Z,15.45
2022-12-08T04:34:42.709Z,16.52
2022-12-08T04:39:48.148Z,18.50
2022-12-08T04:44:52.378Z,13.10
2022-12-08T04:49:56.641Z,11.32
2022-12-08T04:55:02.438Z,11.45
2022-12-08T05:00:10.508Z,11.48
2022-12-08T05:05:14.692Z,11.98
2022-12-08T05:10:21.228Z,14.13
2022-12-08T05:15:26.131Z,13.65
2022-12-08T05:20:30.784Z,13.40
2022-12-08T05:25:36.673Z,16.45
2022-12-08T05:30:43.878Z,13.63
2022-12-08T05:35:47.955Z,12.90
2022-12-08T05:40:53.554Z,11.70
2022-12-08T05:45:57.767Z,13.55
2022-12-08T05:51:02.235Z,13.05
2022-12-08T05:56:08.419Z,8.63
2022-12-08T06:01:20.959Z,9.60
2022-12-08T06:06:25.610Z,8.90
2022-12-08T06:11:33.527Z,11.13
2022-12-08T06:16:39.538Z,13.65
2022-12-08T06:21:44.367Z,13.85
2022-12-08T06:26:51.871Z,14.90
2022-12-08T06:31:56.415Z,17.27
2022-12-08T06:37:02.812Z,19.67
2022-12-08T06:42:26.015Z,22.58
2022-12-08T06:47:30.525Z,17.90
2022-12-08T06:52:37.682Z,20.50
2022-12-08T06:57:46.611Z,26.75
2022-12-08T07:02:52.058Z,24.40
2022-12-08T07:07:56.408Z,32.70
2022-12-08T07:13:04.957Z,32.00
2022-12-08T07:18:10.025Z,34.08
2022-12-08T07:23:15.399Z,28.92
2022-12-08T07:28:21.436Z,24.80
2022-12-08T07:33:26.386Z,14.55
2022-12-08T07:38:31.107Z,16.67
2022-12-08T07:43:37.180Z,41.22
2022-12-08T07:48:42.520Z,36.97
2022-12-08T07:53:53.363Z,38.55
2022-12-08T07:59:01.002Z,39.20
2022-12-08T08:04:11.087Z,38.53
2022-12-08T08:09:15.687Z,32.60
2022-12-08T08:14:22.409Z,26.17
2022-12-08T08:19:26.501Z,24.95
2022-12-08T08:24:30.509Z,25.42
2022-12-08T08:29:35.997Z,20.77
2022-12-08T08:34:40.366Z,22.90
2022-12-08T08:39:45.052Z,23.05
2022-12-08T08:44:51.452Z,11.07
2022-12-08T08:49:55.925Z,7.07
2022-12-08T08:54:59.994Z,8.32
2022-12-08T09:00:10.363Z,9.20
2022-12-08T09:05:16.537Z,7.75
2022-12-08T09:10:21.189Z,7.50
2022-12-08T09:15:26.775Z,11.05
2022-12-08T09:20:31.115Z,11.52
2022-12-08T09:25:35.587Z,14.68
2022-12-08T09:30:42.112Z,15.43
2022-12-08T09:35:46.326Z,10.60
2022-12-08T09:40:52.795Z,11.18
2022-12-08T09:46:00.798Z,11.18
2022-12-08T09:51:07.066Z,8.68
2022-12-08T09:56:15.627Z,9.60
2022-12-08T10:01:22.548Z,8.00
2022-12-08T10:06:33.138Z,10.35
2022-12-08T10:11:45.397Z,10.45
2022-12-08T10:16:53.818Z,12.05
2022-12-08T10:22:01.487Z,12.33
2022-12-08T10:27:09.868Z,11.73
2022-12-08T10:32:19.641Z,12.23
2022-12-08T10:37:25.642Z,13.00
2022-12-08T10:42:36.486Z,10.55
2022-12-08T10:47:45.680Z,14.02
2022-12-08T10:52:58.454Z,13.48
2022-12-08T10:58:05.049Z,12.13
2022-12-08T11:03:29.730Z,11.77
2022-12-08T11:08:34.487Z,14.23
2022-12-08T11:13:42.478Z,10.43
2022-12-08T11:18:57.348Z,12.07
2022-12-08T11:24:19.942Z,9.20
2022-12-08T11:29:24.639Z,8.88
2022-12-08T11:34:36.791Z,8.23
2022-12-08T11:39:49.983Z,10.07
2022-12-08T11:44:59.261Z,8.40
2022-12-08T11:55:37.174Z,8.75
2022-12-08T12:00:45.658Z,9.23
2022-12-08T12:06:38.168Z,9.25
2022-12-08T12:12:09.528Z,9.77
2022-12-08T12:17:32.167Z,10.07
2022-12-08T12:22:39.160Z,10.68
2022-12-08T12:27:45.885Z,12.35
2022-12-08T12:32:55.754Z,14.30
2022-12-08T12:38:08.639Z,15.27
2022-12-08T12:43:29.543Z,13.57
2022-12-08T12:48:33.555Z,13.80
2022-12-08T12:53:52.304Z,10.40
2022-12-08T12:58:56.762Z,10.97
2022-12-08T13:04:09.420Z,12.40
2022-12-08T13:09:29.656Z,12.98
2022-12-08T13:14:37.121Z,13.98
2022-12-08T13:19:44.390Z,23.38
2022-12-08T13:24:53.995Z,15.45
2022-12-08T13:30:35.117Z,11.63
2022-12-08T13:35:47.467Z,14.18
2022-12-08T13:40:55.042Z,20.73
2022-12-08T13:57:10.130Z,14.07
2022-12-08T14:02:19.619Z,10.73
2022-12-08T14:07:26.000Z,11.23
2022-12-08T14:12:32.995Z,15.02
2022-12-08T14:17:37.272Z,10.35
2022-12-08T14:22:42.257Z,12.55
2022-12-08T14:27:51.881Z,17.17
2022-12-08T14:32:58.983Z,13.65
2022-12-08T14:38:05.977Z,13.93
2022-12-08T14:43:18.367Z,15.88
2022-12-08T14:48:25.399Z,13.23
2022-12-08T14:53:40.096Z,26.80
2022-12-08T14:58:46.517Z,33.15
2022-12-08T15:03:51.771Z,34.85
2022-12-08T15:09:00.145Z,25.77
2022-12-08T15:14:29.305Z,20.15
2022-12-08T15:19:35.529Z,21.92
2022-12-08T15:24:42.002Z,18.35
2022-12-08T15:29:48.121Z,17.50
2022-12-08T15:34:52.155Z,19.48
2022-12-08T15:39:56.353Z,17.23
2022-12-08T15:45:01.861Z,20.80
2022-12-08T15:50:09.328Z,16.20
2022-12-08T15:55:14.823Z,15.38
2022-12-08T16:06:50.837Z,13.98
2022-12-08T16:12:05.155Z,14.63
2022-12-08T16:17:12.913Z,13.15
2022-12-08T16:33:11.086Z,21.20
2022-12-08T16:38:16.852Z,24.10
2022-12-08T16:43:21.111Z,20.15
2022-12-08T16:48:28.565Z,17.70
2022-12-08T16:53:32.517Z,19.00
2022-12-08T16:58:39.251Z,16.65
2022-12-08T17:04:01.321Z,17.35
2022-12-08T17:09:12.005Z,17.00
2022-12-08T17:14:16.447Z,14.20
2022-12-08T17:19:22.123Z,14.70
2022-12-08T17:24:29.100Z,15.38
2022-12-08T17:29:33.314Z,17.65
2022-12-08T17:34:39.224Z,15.02
2022-12-08T17:39:43.550Z,14.45
2022-12-08T17:44:47.720Z,17.25
2022-12-08T17:49:56.211Z,17.08
2022-12-08T17:55:00.238Z,12.37
2022-12-08T18:00:06.490Z,19.40
2022-12-08T18:05:17.421Z,17.23
2022-12-08T18:10:21.606Z,15.05
2022-12-08T18:15:26.373Z,18.35
2022-12-08T18:20:31.893Z,19.55
2022-12-08T18:25:35.979Z,21.70
2022-12-08T18:30:40.976Z,20.13
2022-12-08T18:35:46.829Z,25.50
2022-12-08T18:40:51.065Z,27.88
2022-12-08T18:46:02.702Z,26.90
2022-12-08T18:51:12.560Z,22.40
2022-12-08T18:56:23.293Z,24.70
2022-12-08T19:01:27.371Z,24.42
2022-12-08T19:06:33.759Z,28.40
2022-12-08T19:11:39.608Z,22.65
2022-12-08T19:16:45.014Z,21.80
2022-12-08T19:21:53.339Z,17.50
2022-12-08T19:26:58.668Z,16.35
2022-12-08T19:32:05.238Z,18.65
2022-12-08T19:37:13.837Z,21.08
2022-12-08T19:42:38.012Z,21.37
2022-12-08T19:47:43.693Z,20.63
2022-12-08T19:52:49.438Z,19.50
2022-12-08T19:57:54.702Z,21.50
2022-12-08T20:02:59.796Z,23.55
2022-12-08T20:08:07.699Z,26.45
2022-12-08T20:13:31.503Z,27.83
2022-12-08T20:18:36.727Z,23.25
2022-12-08T20:23:42.504Z,22.35
2022-12-08T20:28:46.993Z,26.08
2022-12-08T20:33:51.250Z,19.52
2022-12-08T20:38:57.066Z,18.00
2022-12-08T20:44:01.600Z,17.00
2022-12-08T20:49:06.853Z,15.05
2022-12-08T20:54:12.826Z,17.05
2022-12-08T20:59:18.636Z,14.32
2022-12-08T21:04:24.003Z,12.88
2022-12-08T21:09:30.351Z,13.50
2022-12-08T21:14:36.585Z,15.73
2022-12-08T21:19:41.166Z,17.25
2022-12-08T21:24:46.987Z,19.88
2022-12-08T21:29:51.454Z,19.05
2022-12-08T21:34:57.637Z,23.88
2022-12-08T21:40:05.117Z,22.83
2022-12-08T21:45:10.946Z,20.98
2022-12-08T21:50:16.140Z,16.83
2022-12-08T21:55:23.791Z,16.25
2022-12-08T22:00:28.641Z,17.42
2022-12-08T22:05:33.448Z,18.70
2022-12-08T22:10:39.988Z,21.50
2022-12-08T22:15:44.654Z,20.35
2022-12-08T22:20:49.082Z,19.33
2022-12-08T22:25:59.681Z,21.33
2022-12-08T22:31:10.056Z,16.23
2022-12-08T22:36:16.517Z,15.60
2022-12-08T22:41:23.503Z,20.75
2022-12-08T22:46:28.661Z,19.98
2022-12-08T22:51:32.833Z,19.45
2022-12-08T22:56:38.694Z,20.95
2022-12-08T23:01:44.432Z,19.92
2022-12-08T23:06:49.322Z,20.88
2022-12-08T23:11:55.964Z,20.80
2022-12-08T23:17:00.250Z,21.40
2022-12-08T23:22:05.940Z,19.67
2022-12-08T23:27:11.695Z,18.17
2022-12-08T23:32:16.367Z,18.15
2022-12-08T23:37:20.644Z,15.98
2022-12-08T23:42:26.293Z,16.88
2022-12-08T23:47:31.658Z,16.88
2022-12-08T23:52:37.054Z,16.98
2022-12-08T23:57:44.633Z,14.55
